createdAt,value
2018-06-08T00:00:43.921Z,4.73
2018-06-08T00:03:12.458Z,5.10
2018-06-08T00:05:40.966Z,4.47
2018-06-08T00:08:09.510Z,5.33
2018-06-08T00:10:38.069Z,5.33
2018-06-08T00:13:06.570Z,5.50
2018-06-08T00:15:35.119Z,4.70
2018-06-08T00:18:03.619Z,5.40
2018-06-08T00:20:32.169Z,4.93
2018-06-08T00:23:01.024Z,4.77
2018-06-08T00:25:29.480Z,5.80
2018-06-08T00:27:57.994Z,5.43
2018-06-08T00:30:26.454Z,5.10
2018-06-08T00:32:54.927Z,5.73
2018-06-08T00:35:23.370Z,5.20
2018-06-08T00:37:51.869Z,5.37
2018-06-08T00:40:20.842Z,6.00
2018-06-08T00:42:49.317Z,5.10
2018-06-08T00:45:17.872Z,5.57
2018-06-08T00:47:46.499Z,5.77
2018-06-08T00:50:14.947Z,5.57
2018-06-08T00:52:43.425Z,5.30
2018-06-08T00:55:11.862Z,5.70
2018-06-08T00:57:40.357Z,5.63
2018-06-08T01:00:08.806Z,5.77
2018-06-08T01:02:37.308Z,5.70
2018-06-08T01:05:05.686Z,5.33
2018-06-08T01:07:34.179Z,6.03
2018-06-08T01:10:02.641Z,5.80
2018-06-08T01:12:31.149Z,5.63
2018-06-08T01:14:59.622Z,5.63
2018-06-08T01:17:28.119Z,5.47
2018-06-08T01:19:56.597Z,6.10
2018-06-08T01:22:25.098Z,5.90
2018-06-08T01:24:53.568Z,6.30
2018-06-08T01:27:22.210Z,6.30
2018-06-08T01:29:50.681Z,5.80
2018-06-08T01:32:19.357Z,5.70
2018-06-08T01:34:48.697Z,6.10
2018-06-08T01:37:17.268Z,5.30
2018-06-08T01:39:45.754Z,5.67
2018-06-08T01:42:14.205Z,6.40
2018-06-08T01:44:42.674Z,6.30
2018-06-08T01:47:11.106Z,5.97
2018-06-08T01:49:39.581Z,6.57
2018-06-08T01:52:08.025Z,6.30
2018-06-08T01:54:36.507Z,7.50
2018-06-08T01:57:04.990Z,7.20
2018-06-08T01:59:35.570Z,6.77
2018-06-08T02:02:04.338Z,6.67
2018-06-08T02:04:32.836Z,5.57
2018-06-08T02:07:01.342Z,6.97
2018-06-08T02:09:29.826Z,6.27
2018-06-08T02:11:58.286Z,5.50
2018-06-08T02:14:26.770Z,6.47
2018-06-08T02:16:55.345Z,6.93
2018-06-08T02:19:23.825Z,5.77
2018-06-08T02:21:52.389Z,6.40
2018-06-08T02:24:20.881Z,6.83
2018-06-08T02:26:49.047Z,7.13
2018-06-08T02:29:17.618Z,5.97
2018-06-08T02:31:46.073Z,5.67
2018-06-08T02:34:14.627Z,6.53
2018-06-08T02:36:43.071Z,6.83
2018-06-08T02:39:11.559Z,6.57
2018-06-08T02:41:40.017Z,6.67
2018-06-08T02:44:08.499Z,7.43
2018-06-08T02:46:37.086Z,5.50
2018-06-08T02:49:05.625Z,6.70
2018-06-08T02:51:34.281Z,7.20
2018-06-08T02:54:02.989Z,6.60
2018-06-08T02:56:31.432Z,7.03
2018-06-08T02:58:59.914Z,6.83
2018-06-08T03:01:28.425Z,6.73
2018-06-08T03:03:56.949Z,6.70
2018-06-08T03:06:25.460Z,6.80
2018-06-08T03:08:53.942Z,6.47
2018-06-08T03:11:22.400Z,7.30
2018-06-08T03:13:50.925Z,6.70
2018-06-08T03:16:19.402Z,6.70
2018-06-08T03:18:47.917Z,7.03
2018-06-08T03:21:16.409Z,6.93
2018-06-08T03:23:45.154Z,7.50
2018-06-08T03:26:13.599Z,10.33
2018-06-08T03:28:42.030Z,6.90
2018-06-08T03:31:10.504Z,7.50
2018-06-08T03:33:38.951Z,7.03
2018-06-08T03:36:07.443Z,7.80
2018-06-08T03:38:35.886Z,8.30
2018-06-08T03:41:04.388Z,7.67
2018-06-08T03:43:32.845Z,8.40
2018-06-08T03:46:01.326Z,8.03
2018-06-08T03:48:29.780Z,7.53
2018-06-08T03:50:58.289Z,7.77
2018-06-08T03:53:26.734Z,7.47
2018-06-08T03:55:55.457Z,7.60
2018-06-08T03:58:23.874Z,7.73
2018-06-08T04:00:52.360Z,7.83
2018-06-08T04:03:20.795Z,7.37
2018-06-08T04:05:49.337Z,7.20
2018-06-08T04:08:17.781Z,8.20
2018-06-08T04:10:46.418Z,7.50
2018-06-08T04:13:14.881Z,8.37
2018-06-08T04:15:43.373Z,7.50
2018-06-08T04:18:14.126Z,8.00
2018-06-08T04:20:42.654Z,7.80
2018-06-08T04:23:11.110Z,8.50
2018-06-08T04:25:39.778Z,8.47
2018-06-08T04:28:08.202Z,8.20
2018-06-08T04:30:36.683Z,7.57
2018-06-08T04:33:04.916Z,8.70
2018-06-08T04:35:33.393Z,8.73
2018-06-08T04:38:01.866Z,8.87
2018-06-08T04:40:30.363Z,8.77
2018-06-08T04:42:58.842Z,8.53
2018-06-08T04:45:27.361Z,8.07
2018-06-08T04:47:55.987Z,7.87
2018-06-08T04:50:24.472Z,9.30
2018-06-08T04:52:52.925Z,7.50
2018-06-08T04:55:21.410Z,8.80
2018-06-08T04:57:49.896Z,7.87
2018-06-08T05:00:18.534Z,8.47
2018-06-08T05:02:46.995Z,8.80
2018-06-08T05:05:15.554Z,8.70
2018-06-08T05:07:44.011Z,8.80
2018-06-08T05:10:12.509Z,8.50
2018-06-08T05:12:40.953Z,8.60
2018-06-08T05:15:09.443Z,9.63
2018-06-08T05:17:37.878Z,8.80
2018-06-08T05:20:06.369Z,9.13
2018-06-08T05:22:34.806Z,8.83
2018-06-08T05:25:03.307Z,9.17
2018-06-08T05:27:32.393Z,8.77
2018-06-08T05:30:00.910Z,9.07
2018-06-08T05:32:29.354Z,8.30
2018-06-08T05:34:57.811Z,8.00
2018-06-08T05:37:26.283Z,8.70
2018-06-08T05:39:54.730Z,8.73
2018-06-08T05:42:23.223Z,8.83
2018-06-08T05:44:51.670Z,9.07
2018-06-08T05:47:20.129Z,7.60
2018-06-08T05:49:48.606Z,10.43
2018-06-08T05:52:17.127Z,9.30
2018-06-08T05:54:45.586Z,8.50
2018-06-08T05:57:14.078Z,8.60
2018-06-08T05:59:42.659Z,10.20
2018-06-08T06:02:11.166Z,8.70
2018-06-08T06:04:39.639Z,8.50
2018-06-08T06:07:08.237Z,9.63
2018-06-08T06:09:36.688Z,10.10
2018-06-08T06:12:05.135Z,8.57
2018-06-08T06:14:33.648Z,9.33
2018-06-08T06:17:02.124Z,9.10
2018-06-08T06:19:30.625Z,9.33
2018-06-08T06:21:59.091Z,8.60
2018-06-08T06:24:27.573Z,8.73
2018-06-08T06:26:56.040Z,9.20
2018-06-08T06:29:24.565Z,9.90
2018-06-08T06:31:53.032Z,9.33
2018-06-08T06:34:21.535Z,9.90
2018-06-08T06:36:50.013Z,10.43
2018-06-08T06:39:18.514Z,9.73
2018-06-08T06:41:46.983Z,10.27
2018-06-08T06:44:15.465Z,10.10
2018-06-08T06:46:43.947Z,9.00
2018-06-08T06:49:12.385Z,10.50
2018-06-08T06:51:41.038Z,8.63
2018-06-08T06:54:09.593Z,9.63
2018-06-08T06:56:38.081Z,9.83
2018-06-08T06:59:06.616Z,11.07
2018-06-08T07:01:35.231Z,10.27
2018-06-08T07:04:03.750Z,10.43
2018-06-08T07:06:32.282Z,10.30
2018-06-08T07:09:00.778Z,11.13
2018-06-08T07:11:29.326Z,9.80
2018-06-08T07:13:57.792Z,11.33
2018-06-08T07:16:26.274Z,10.73
2018-06-08T07:18:54.783Z,10.40
2018-06-08T07:21:23.277Z,11.73
2018-06-08T07:23:51.734Z,11.17
2018-06-08T07:26:20.437Z,10.60
2018-06-08T07:28:48.898Z,9.50
2018-06-08T07:31:17.419Z,10.37
2018-06-08T07:33:45.882Z,9.30
2018-06-08T07:36:14.411Z,9.90
2018-06-08T07:38:42.895Z,10.57
2018-06-08T07:41:11.349Z,9.77
2018-06-08T07:43:39.830Z,9.77
2018-06-08T07:46:08.295Z,9.87
2018-06-08T07:48:36.817Z,9.07
2018-06-08T07:51:04.992Z,9.40
2018-06-08T07:53:33.517Z,8.90
2018-06-08T07:56:01.968Z,9.77
2018-06-08T07:58:30.475Z,10.10
2018-06-08T08:00:59.055Z,9.63
2018-06-08T08:03:27.713Z,10.73
2018-06-08T08:05:57.429Z,9.57
2018-06-08T08:08:25.916Z,8.50
2018-06-08T08:10:54.394Z,9.00
2018-06-08T08:13:22.915Z,11.07
2018-06-08T08:15:51.746Z,9.20
2018-06-08T08:18:20.270Z,9.23
2018-06-08T08:20:48.779Z,10.00
2018-06-08T08:23:17.241Z,9.97
2018-06-08T08:25:45.820Z,10.30
2018-06-08T08:28:14.232Z,10.17
2018-06-08T08:30:42.749Z,9.70
2018-06-08T08:33:11.235Z,8.83
2018-06-08T08:35:39.788Z,9.00
2018-06-08T08:38:08.282Z,10.47
2018-06-08T08:40:36.774Z,7.43
2018-06-08T08:43:05.291Z,8.60
2018-06-08T08:45:33.790Z,9.17
2018-06-08T08:48:02.301Z,7.60
2018-06-08T08:50:30.800Z,8.67
2018-06-08T08:52:59.266Z,7.90
2018-06-08T08:55:27.710Z,7.30
2018-06-08T08:57:56.273Z,8.50
2018-06-08T09:00:24.804Z,8.73
2018-06-08T09:02:53.301Z,7.67
2018-06-08T09:05:21.790Z,7.37
2018-06-08T09:07:50.284Z,8.57
2018-06-08T09:10:18.734Z,8.63
2018-06-08T09:12:47.258Z,8.50
2018-06-08T09:15:15.742Z,10.03
2018-06-08T09:17:44.279Z,8.60
2018-06-08T09:20:12.782Z,9.40
2018-06-08T09:22:41.348Z,9.30
2018-06-08T09:25:09.813Z,8.17
2018-06-08T09:27:38.328Z,8.23
2018-06-08T09:30:06.905Z,8.20
2018-06-08T09:32:35.398Z,8.23
2018-06-08T09:35:03.925Z,9.10
2018-06-08T09:37:32.458Z,8.80
2018-06-08T09:40:01.051Z,8.97
2018-06-08T09:42:29.520Z,8.70
2018-06-08T09:44:58.057Z,9.20
2018-06-08T09:47:26.651Z,9.70
2018-06-08T09:49:55.238Z,8.70
2018-06-08T09:52:23.826Z,8.50
2018-06-08T09:54:52.384Z,7.63
2018-06-08T09:57:20.930Z,8.27
2018-06-08T09:59:50.937Z,8.60
2018-06-08T10:02:19.434Z,7.80
2018-06-08T10:04:47.926Z,7.77
2018-06-08T10:07:16.440Z,7.57
2018-06-08T10:09:44.978Z,6.97
2018-06-08T10:12:16.899Z,8.43
2018-06-08T10:14:45.455Z,7.67
2018-06-08T10:17:14.256Z,8.03
2018-06-08T10:19:42.733Z,7.40
2018-06-08T10:22:12.055Z,8.27
2018-06-08T10:24:42.231Z,8.93
2018-06-08T10:27:11.859Z,8.37
2018-06-08T10:29:40.332Z,7.90
2018-06-08T10:32:08.844Z,9.00
2018-06-08T10:34:37.292Z,7.90
2018-06-08T10:37:05.861Z,8.20
2018-06-08T10:39:34.400Z,8.67
2018-06-08T10:42:02.967Z,7.93
2018-06-08T10:44:32.437Z,8.10
2018-06-08T10:47:01.079Z,7.37
2018-06-08T10:49:30.430Z,7.90
2018-06-08T10:51:59.729Z,6.90
2018-06-08T10:54:28.439Z,7.60
2018-06-08T10:56:57.582Z,7.47
2018-06-08T10:59:26.074Z,8.00
2018-06-08T11:01:54.641Z,8.10
2018-06-08T11:04:23.094Z,8.20
2018-06-08T11:06:51.685Z,8.03
2018-06-08T11:09:20.267Z,7.70
2018-06-08T11:11:48.741Z,8.10
2018-06-08T11:14:17.228Z,8.17
2018-06-08T11:16:45.722Z,8.37
2018-06-08T11:19:14.346Z,8.30
2018-06-08T11:21:42.881Z,7.63
2018-06-08T11:24:11.408Z,8.00
2018-06-08T11:26:40.020Z,7.50
2018-06-08T11:29:08.475Z,7.47
2018-06-08T11:31:37.695Z,7.20
2018-06-08T11:34:06.499Z,7.53
2018-06-08T11:36:35.893Z,7.30
2018-06-08T11:39:07.435Z,6.90
2018-06-08T11:41:36.086Z,7.50
2018-06-08T11:44:04.749Z,7.10
2018-06-08T11:46:33.256Z,6.93
2018-06-08T11:49:01.773Z,7.00
2018-06-08T11:51:30.228Z,6.90
2018-06-08T11:53:58.678Z,7.17
2018-06-08T11:56:27.166Z,7.20
2018-06-08T11:58:55.672Z,6.30
2018-06-08T12:01:24.218Z,7.13
2018-06-08T12:03:52.675Z,6.70
2018-06-08T12:06:21.187Z,6.70
2018-06-08T12:08:49.638Z,7.40
2018-06-08T12:11:18.152Z,7.53
2018-06-08T12:13:46.607Z,6.87
2018-06-08T12:16:15.140Z,7.20
2018-06-08T12:18:43.663Z,6.33
2018-06-08T12:21:12.183Z,6.70
2018-06-08T12:23:40.348Z,6.77
2018-06-08T12:26:08.855Z,6.23
2018-06-08T12:28:37.289Z,6.33
2018-06-08T12:31:05.818Z,6.63
2018-06-08T12:33:34.303Z,6.27
2018-06-08T12:36:02.827Z,6.30
2018-06-08T12:38:31.279Z,5.80
2018-06-08T12:40:59.823Z,5.83
2018-06-08T12:43:27.950Z,5.90
2018-06-08T12:45:56.376Z,6.20
2018-06-08T12:48:24.870Z,5.80
2018-06-08T12:50:53.535Z,6.63
2018-06-08T12:53:22.832Z,5.70
2018-06-08T12:55:51.279Z,5.50
2018-06-08T12:58:25.873Z,6.23
2018-06-08T13:00:54.550Z,5.63
2018-06-08T13:03:23.088Z,5.40
2018-06-08T13:05:51.539Z,5.63
2018-06-08T13:08:20.035Z,4.97
2018-06-08T13:10:48.526Z,5.50
2018-06-08T13:13:17.058Z,4.60
2018-06-08T13:15:45.524Z,4.63
2018-06-08T13:18:14.101Z,4.83
2018-06-08T13:20:42.598Z,4.67
2018-06-08T13:23:11.176Z,5.13
2018-06-08T13:25:39.715Z,5.37
2018-06-08T13:28:08.226Z,5.20
2018-06-08T13:30:36.481Z,4.63
2018-06-08T13:33:04.959Z,4.73
2018-06-08T13:35:33.527Z,5.30
2018-06-08T13:38:02.012Z,5.83
2018-06-08T13:40:30.607Z,5.20
2018-06-08T13:42:59.079Z,6.50
2018-06-08T13:45:27.620Z,5.47
2018-06-08T13:47:56.135Z,5.07
2018-06-08T13:50:24.698Z,5.27
2018-06-08T13:52:53.317Z,5.40
2018-06-08T13:55:21.965Z,5.40
2018-06-08T13:57:50.443Z,5.70
2018-06-08T14:00:19.009Z,5.37
2018-06-08T14:02:47.457Z,5.33
2018-06-08T14:05:16.000Z,6.00
2018-06-08T14:07:44.483Z,5.90
2018-06-08T14:10:13.084Z,5.87
2018-06-08T14:12:41.587Z,5.43
2018-06-08T14:15:10.146Z,5.97
2018-06-08T14:17:38.648Z,5.73
2018-06-08T14:20:07.094Z,5.60
2018-06-08T14:22:35.583Z,4.80
2018-06-08T14:25:04.110Z,4.83
2018-06-08T14:27:32.649Z,4.97
2018-06-08T14:30:01.154Z,4.57
2018-06-08T14:32:29.619Z,5.60
2018-06-08T14:34:58.573Z,5.50
2018-06-08T14:37:27.070Z,4.70
2018-06-08T14:39:55.554Z,5.47
2018-06-08T14:42:24.648Z,5.47
2018-06-08T14:44:53.120Z,4.77
2018-06-08T14:47:21.651Z,5.60
2018-06-08T14:49:50.125Z,5.73
2018-06-08T14:52:18.634Z,6.03
2018-06-08T14:54:47.087Z,5.20
2018-06-08T14:57:15.656Z,5.50
2018-06-08T14:59:44.137Z,5.07
2018-06-08T15:02:12.749Z,5.60
2018-06-08T15:04:42.504Z,5.57
2018-06-08T15:07:11.045Z,5.73
2018-06-08T15:09:40.566Z,5.77
2018-06-08T15:12:09.113Z,6.13
2018-06-08T15:14:37.594Z,6.00
2018-06-08T15:17:06.829Z,7.13
2018-06-08T15:19:35.429Z,5.47
2018-06-08T15:22:03.950Z,6.40
2018-06-08T15:24:32.504Z,5.70
2018-06-08T15:27:01.171Z,5.07
2018-06-08T15:29:29.756Z,5.53
2018-06-08T15:31:57.936Z,6.30
2018-06-08T15:34:26.457Z,5.93
2018-06-08T15:36:55.571Z,5.20
2018-06-08T15:39:24.147Z,6.80
2018-06-08T15:41:52.817Z,5.63
2018-06-08T15:44:21.414Z,6.63
2018-06-08T15:46:49.920Z,5.60
2018-06-08T15:49:18.398Z,6.00
2018-06-08T15:51:47.324Z,6.40
2018-06-08T15:54:15.786Z,5.97
2018-06-08T15:56:45.426Z,5.67
2018-06-08T15:59:13.903Z,5.80
2018-06-08T16:01:42.437Z,6.30
2018-06-08T16:04:10.912Z,5.60
2018-06-08T16:06:39.402Z,6.33
2018-06-08T16:09:07.982Z,6.20
2018-06-08T16:11:36.482Z,6.43
2018-06-08T16:14:05.128Z,6.00
2018-06-08T16:16:33.649Z,5.90
2018-06-08T16:19:02.178Z,5.93
2018-06-08T16:21:31.171Z,6.77
2018-06-08T16:23:59.698Z,6.60
2018-06-08T16:26:28.834Z,6.13
2018-06-08T16:28:57.359Z,6.00
2018-06-08T16:31:25.876Z,6.03
2018-06-08T16:33:54.354Z,6.17
2018-06-08T16:36:23.030Z,6.10
2018-06-08T16:38:51.526Z,6.60
2018-06-08T16:41:20.254Z,6.77
2018-06-08T16:43:48.721Z,6.23
2018-06-08T16:46:17.204Z,6.10
2018-06-08T16:48:48.267Z,5.97
2018-06-08T16:51:16.812Z,6.70
2018-06-08T16:53:45.299Z,6.50
2018-06-08T16:56:13.801Z,6.27
2018-06-08T16:58:42.303Z,6.43
2018-06-08T17:01:10.775Z,5.97
2018-06-08T17:03:39.282Z,6.10
2018-06-08T17:06:07.835Z,5.80
2018-06-08T17:08:36.379Z,6.70
2018-06-08T17:11:04.560Z,6.20
2018-06-08T17:13:33.104Z,6.23
2018-06-08T17:16:01.625Z,6.70
2018-06-08T17:18:30.187Z,6.47
2018-06-08T17:20:58.671Z,6.90
2018-06-08T17:23:27.288Z,6.53
2018-06-08T17:25:55.787Z,5.80
2018-06-08T17:28:24.322Z,6.90
2018-06-08T17:30:52.774Z,6.83
2018-06-08T17:33:21.374Z,6.53
2018-06-08T17:35:50.071Z,6.70
2018-06-08T17:38:18.225Z,6.97
2018-06-08T17:40:46.724Z,6.23
2018-06-08T17:43:15.182Z,6.70
2018-06-08T17:45:43.710Z,7.13
2018-06-08T17:48:12.185Z,6.77
2018-06-08T17:50:40.718Z,6.40
2018-06-08T17:53:12.193Z,6.80
2018-06-08T17:55:40.714Z,7.27
2018-06-08T17:58:09.304Z,7.10
2018-06-08T18:00:37.827Z,7.63
2018-06-08T18:03:06.276Z,6.10
2018-06-08T18:05:34.799Z,7.30
2018-06-08T18:08:03.352Z,8.80
2018-06-08T18:10:31.984Z,6.20
2018-06-08T18:13:00.460Z,7.40
2018-06-08T18:15:29.092Z,7.13
2018-06-08T18:17:57.742Z,7.03
2018-06-08T18:20:27.168Z,7.27
2018-06-08T18:22:55.646Z,6.73
2018-06-08T18:25:24.143Z,7.73
2018-06-08T18:27:52.688Z,8.40
2018-06-08T18:30:21.223Z,7.90
2018-06-08T18:32:50.056Z,8.40
2018-06-08T18:35:18.539Z,8.07
2018-06-08T18:37:47.127Z,8.27
2018-06-08T18:40:15.586Z,8.30
2018-06-08T18:42:44.125Z,8.37
2018-06-08T18:45:12.592Z,8.70
2018-06-08T18:47:41.108Z,8.03
2018-06-08T18:50:09.631Z,8.40
2018-06-08T18:52:38.187Z,6.93
2018-06-08T18:55:07.000Z,8.70
2018-06-08T18:57:35.570Z,8.67
2018-06-08T19:00:05.137Z,9.10
2018-06-08T19:02:33.610Z,9.60
2018-06-08T19:05:02.177Z,8.53
2018-06-08T19:07:31.674Z,9.20
2018-06-08T19:10:00.247Z,8.30
2018-06-08T19:12:29.378Z,8.63
2018-06-08T19:14:57.868Z,7.50
2018-06-08T19:17:26.392Z,7.50
2018-06-08T19:19:55.023Z,9.33
2018-06-08T19:22:23.529Z,9.23
2018-06-08T19:24:52.041Z,8.93
2018-06-08T19:27:20.521Z,8.93
2018-06-08T19:29:49.060Z,6.87
2018-06-08T19:32:17.606Z,7.10
2018-06-08T19:34:46.089Z,7.73
2018-06-08T19:37:14.577Z,6.93
2018-06-08T19:39:43.065Z,6.13
2018-06-08T19:42:11.565Z,5.37
2018-06-08T19:44:40.113Z,6.00
2018-06-08T19:47:08.799Z,6.57
2018-06-08T19:49:37.022Z,6.00
2018-06-08T19:52:05.516Z,6.03
2018-06-08T19:54:34.057Z,5.40
2018-06-08T19:57:02.542Z,5.77
2018-06-08T19:59:31.123Z,5.80
2018-06-08T20:01:59.607Z,6.60
2018-06-08T20:04:28.222Z,5.83
2018-06-08T20:06:56.816Z,4.90
2018-06-08T20:09:25.399Z,5.30
2018-06-08T20:11:53.871Z,5.73
2018-06-08T20:14:22.487Z,4.73
2018-06-08T20:16:50.974Z,4.73
2018-06-08T20:19:19.658Z,5.10
2018-06-08T20:21:48.218Z,4.77
2018-06-08T20:24:16.741Z,4.97
2018-06-08T20:26:45.406Z,4.80
2018-06-08T20:29:14.088Z,4.90
2018-06-08T20:31:43.456Z,5.30
2018-06-08T20:34:12.003Z,4.60
2018-06-08T20:36:40.884Z,5.17
2018-06-08T20:39:09.349Z,5.00
2018-06-08T20:41:37.876Z,6.03
2018-06-08T20:44:06.370Z,4.70
2018-06-08T20:46:34.968Z,4.60
2018-06-08T20:49:03.588Z,4.90
2018-06-08T20:51:32.167Z,4.90
2018-06-08T20:54:00.726Z,6.17
2018-06-08T20:56:29.209Z,5.60
2018-06-08T20:58:57.805Z,5.77
2018-06-08T21:01:26.369Z,5.23
2018-06-08T21:03:54.982Z,6.80
2018-06-08T21:06:23.506Z,5.50
2018-06-08T21:08:52.051Z,5.90
2018-06-08T21:11:20.549Z,5.60
2018-06-08T21:13:49.147Z,5.50
2018-06-08T21:16:17.604Z,6.77
2018-06-08T21:18:47.233Z,6.93
2018-06-08T21:21:15.867Z,6.77
2018-06-08T21:23:44.488Z,5.87
2018-06-08T21:26:13.000Z,6.20
2018-06-08T21:28:41.513Z,6.60
2018-06-08T21:31:10.132Z,6.23
2018-06-08T21:33:38.854Z,7.10
2018-06-08T21:36:07.559Z,6.90
2018-06-08T21:38:36.057Z,6.53
2018-06-08T21:41:04.630Z,6.80
2018-06-08T21:43:33.206Z,6.60
2018-06-08T21:46:01.850Z,7.27
2018-06-08T21:48:31.573Z,6.30
2018-06-08T21:51:00.189Z,6.80
2018-06-08T21:53:28.778Z,6.53
2018-06-08T21:55:58.431Z,5.63
2018-06-08T21:58:26.954Z,6.63
2018-06-08T22:00:55.658Z,6.10
2018-06-08T22:03:27.050Z,6.70
2018-06-08T22:06:01.870Z,6.27
2018-06-08T22:08:30.431Z,6.33
2018-06-08T22:10:59.090Z,6.27
2018-06-08T22:13:28.103Z,6.50
2018-06-08T22:15:56.658Z,6.30
2018-06-08T22:18:25.255Z,7.60
2018-06-08T22:20:55.341Z,6.70
2018-06-08T22:23:24.016Z,6.80
2018-06-08T22:25:52.595Z,7.23
2018-06-08T22:28:21.886Z,7.73
2018-06-08T22:30:51.630Z,7.50
2018-06-08T22:33:20.226Z,8.80
2018-06-08T22:35:48.697Z,8.00
2018-06-08T22:38:17.285Z,7.87
2018-06-08T22:40:47.231Z,7.70
2018-06-08T22:43:15.746Z,8.03
2018-06-08T22:45:44.747Z,8.47
2018-06-08T22:48:13.661Z,8.23
2018-06-08T22:50:42.129Z,9.20
2018-06-08T22:53:10.838Z,9.70
2018-06-08T22:55:39.984Z,9.27
2018-06-08T22:58:08.468Z,9.03
2018-06-08T23:00:37.027Z,9.00
2018-06-08T23:03:05.732Z,8.30
2018-06-08T23:05:34.187Z,8.73
2018-06-08T23:08:02.633Z,8.00
2018-06-08T23:10:31.141Z,10.07
2018-06-08T23:12:59.640Z,9.63
2018-06-08T23:15:28.138Z,9.47
2018-06-08T23:17:56.646Z,9.67
2018-06-08T23:20:25.223Z,9.27
2018-06-08T23:22:53.752Z,8.57
2018-06-08T23:25:22.214Z,9.80
2018-06-08T23:27:50.903Z,9.60
2018-06-08T23:30:19.413Z,9.40
2018-06-08T23:32:47.858Z,8.87
2018-06-08T23:35:17.870Z,9.13
2018-06-08T23:37:46.991Z,9.13
2018-06-08T23:40:15.510Z,9.03
2018-06-08T23:42:44.656Z,8.90
2018-06-08T23:45:13.190Z,9.00
2018-06-08T23:47:41.669Z,8.57
2018-06-08T23:50:10.167Z,9.33
2018-06-08T23:52:38.645Z,8.80
2018-06-08T23:55:07.095Z,9.20
2018-06-08T23:57:35.593Z,9.40
